sensor_id;sensor_type;location;lat;lon;timestamp;P1;durP1;ratioP1;P2;durP2;ratioP2
66830;SDS011;53739;44.224;22.528;2024-03-29T00:01:10;6.22;;;2.47;;
66830;SDS011;53739;44.224;22.528;2024-03-29T00:03:36;7.90;;;3.53;;
66830;SDS011;53739;44.224;22.528;2024-03-29T00:06:02;10.27;;;3.00;;
66830;SDS011;53739;44.224;22.528;2024-03-29T00:08:28;14.32;;;4.82;;
66830;SDS011;53739;44.224;22.528;2024-03-29T00:10:54;9.93;;;3.35;;
66830;SDS011;53739;44.224;22.528;2024-03-29T00:13:20;14.30;;;4.50;;
66830;SDS011;53739;44.224;22.528;2024-03-29T00:15:46;6.20;;;3.03;;
66830;SDS011;53739;44.224;22.528;2024-03-29T00:18:12;9.27;;;3.15;;
66830;SDS011;53739;44.224;22.528;2024-03-29T00:20:38;9.73;;;3.03;;
66830;SDS011;53739;44.224;22.528;2024-03-29T00:23:04;8.63;;;2.55;;
66830;SDS011;53739;44.224;22.528;2024-03-29T00:25:31;10.75;;;3.20;;
66830;SDS011;53739;44.224;22.528;2024-03-29T00:27:57;7.05;;;2.63;;
66830;SDS011;53739;44.224;22.528;2024-03-29T00:30:23;6.60;;;2.97;;
66830;SDS011;53739;44.224;22.528;2024-03-29T00:32:49;8.30;;;3.38;;
66830;SDS011;53739;44.224;22.528;2024-03-29T00:35:15;8.77;;;2.22;;
66830;SDS011;53739;44.224;22.528;2024-03-29T00:37:41;7.00;;;2.30;;
66830;SDS011;53739;44.224;22.528;2024-03-29T00:40:07;5.47;;;2.28;;
66830;SDS011;53739;44.224;22.528;2024-03-29T00:42:33;6.53;;;2.42;;
66830;SDS011;53739;44.224;22.528;2024-03-29T00:45:00;10.13;;;3.25;;
66830;SDS011;53739;44.224;22.528;2024-03-29T00:47:26;7.38;;;3.10;;
66830;SDS011;53739;44.224;22.528;2024-03-29T00:49:52;9.40;;;3.55;;
66830;SDS011;53739;44.224;22.528;2024-03-29T00:52:18;5.82;;;2.70;;
66830;SDS011;53739;44.224;22.528;2024-03-29T00:54:44;8.98;;;4.43;;
66830;SDS011;53739;44.224;22.528;2024-03-29T00:57:10;10.85;;;4.20;;
66830;SDS011;53739;44.224;22.528;2024-03-29T00:59:39;10.07;;;3.42;;
66830;SDS011;53739;44.224;22.528;2024-03-29T01:02:07;11.63;;;4.63;;
66830;SDS011;53739;44.224;22.528;2024-03-29T01:04:33;9.35;;;4.20;;
66830;SDS011;53739;44.224;22.528;2024-03-29T01:06:59;10.00;;;4.28;;
66830;SDS011;53739;44.224;22.528;2024-03-29T01:09:25;6.68;;;2.92;;
66830;SDS011;53739;44.224;22.528;2024-03-29T01:11:52;5.60;;;3.30;;
66830;SDS011;53739;44.224;22.528;2024-03-29T01:14:18;10.98;;;4.75;;
66830;SDS011;53739;44.224;22.528;2024-03-29T01:16:45;9.52;;;3.53;;
66830;SDS011;53739;44.224;22.528;2024-03-29T01:19:11;7.82;;;3.50;;
66830;SDS011;53739;44.224;22.528;2024-03-29T01:21:37;5.07;;;2.63;;
66830;SDS011;53739;44.224;22.528;2024-03-29T01:24:04;5.25;;;2.50;;
66830;SDS011;53739;44.224;22.528;2024-03-29T01:26:30;6.28;;;2.55;;
66830;SDS011;53739;44.224;22.528;2024-03-29T01:28:56;5.18;;;2.45;;
66830;SDS011;53739;44.224;22.528;2024-03-29T01:31:23;5.53;;;2.47;;
66830;SDS011;53739;44.224;22.528;2024-03-29T01:33:49;10.02;;;2.50;;
66830;SDS011;53739;44.224;22.528;2024-03-29T01:36:16;4.85;;;2.03;;
66830;SDS011;53739;44.224;22.528;2024-03-29T01:38:42;6.93;;;2.17;;
66830;SDS011;53739;44.224;22.528;2024-03-29T01:41:10;3.28;;;1.58;;
66830;SDS011;53739;44.224;22.528;2024-03-29T01:43:37;4.40;;;2.20;;
66830;SDS011;53739;44.224;22.528;2024-03-29T01:46:04;6.80;;;2.53;;
66830;SDS011;53739;44.224;22.528;2024-03-29T01:48:33;6.78;;;1.95;;
66830;SDS011;53739;44.224;22.528;2024-03-29T01:50:59;5.88;;;2.08;;
66830;SDS011;53739;44.224;22.528;2024-03-29T01:53:26;5.60;;;1.83;;
66830;SDS011;53739;44.224;22.528;2024-03-29T01:55:53;7.00;;;2.28;;
66830;SDS011;53739;44.224;22.528;2024-03-29T01:58:19;5.25;;;2.25;;
66830;SDS011;53739;44.224;22.528;2024-03-29T02:00:53;3.97;;;1.67;;
66830;SDS011;53739;44.224;22.528;2024-03-29T02:05:46;6.15;;;2.10;;
66830;SDS011;53739;44.224;22.528;2024-03-29T02:08:12;4.05;;;1.80;;
66830;SDS011;53739;44.224;22.528;2024-03-29T02:10:40;3.92;;;1.60;;
66830;SDS011;53739;44.224;22.528;2024-03-29T02:13:06;6.05;;;2.40;;
66830;SDS011;53739;44.224;22.528;2024-03-29T02:15:32;7.80;;;2.35;;
66830;SDS011;53739;44.224;22.528;2024-03-29T02:17:58;8.05;;;2.00;;
66830;SDS011;53739;44.224;22.528;2024-03-29T02:20:25;4.82;;;2.33;;
66830;SDS011;53739;44.224;22.528;2024-03-29T02:22:55;6.85;;;3.00;;
66830;SDS011;53739;44.224;22.528;2024-03-29T02:25:23;9.30;;;2.35;;
66830;SDS011;53739;44.224;22.528;2024-03-29T02:27:50;4.82;;;2.08;;
66830;SDS011;53739;44.224;22.528;2024-03-29T02:30:17;5.57;;;1.73;;
66830;SDS011;53739;44.224;22.528;2024-03-29T02:32:43;4.60;;;2.10;;
66830;SDS011;53739;44.224;22.528;2024-03-29T02:35:10;4.97;;;2.45;;
66830;SDS011;53739;44.224;22.528;2024-03-29T02:37:36;6.35;;;1.80;;
66830;SDS011;53739;44.224;22.528;2024-03-29T02:40:02;4.28;;;2.10;;
66830;SDS011;53739;44.224;22.528;2024-03-29T02:42:29;7.80;;;2.45;;
66830;SDS011;53739;44.224;22.528;2024-03-29T02:44:55;8.68;;;2.00;;
66830;SDS011;53739;44.224;22.528;2024-03-29T02:47:21;6.05;;;2.15;;
66830;SDS011;53739;44.224;22.528;2024-03-29T02:49:47;5.07;;;2.53;;
66830;SDS011;53739;44.224;22.528;2024-03-29T02:52:14;4.63;;;2.47;;
66830;SDS011;53739;44.224;22.528;2024-03-29T02:54:40;7.85;;;2.53;;
66830;SDS011;53739;44.224;22.528;2024-03-29T02:57:07;5.47;;;2.67;;
66830;SDS011;53739;44.224;22.528;2024-03-29T02:59:33;5.43;;;2.13;;
66830;SDS011;53739;44.224;22.528;2024-03-29T03:01:59;7.53;;;2.25;;
66830;SDS011;53739;44.224;22.528;2024-03-29T03:04:25;3.80;;;1.80;;
66830;SDS011;53739;44.224;22.528;2024-03-29T03:06:51;5.13;;;1.90;;
66830;SDS011;53739;44.224;22.528;2024-03-29T03:09:18;2.63;;;1.45;;
66830;SDS011;53739;44.224;22.528;2024-03-29T03:12:02;7.45;;;2.17;;
66830;SDS011;53739;44.224;22.528;2024-03-29T03:14:28;3.20;;;1.40;;
66830;SDS011;53739;44.224;22.528;2024-03-29T03:16:54;5.22;;;1.63;;
66830;SDS011;53739;44.224;22.528;2024-03-29T03:19:20;3.05;;;1.75;;
66830;SDS011;53739;44.224;22.528;2024-03-29T03:21:50;5.55;;;2.00;;
66830;SDS011;53739;44.224;22.528;2024-03-29T03:24:16;5.97;;;2.50;;
66830;SDS011;53739;44.224;22.528;2024-03-29T03:26:42;3.95;;;1.40;;
66830;SDS011;53739;44.224;22.528;2024-03-29T03:29:08;3.55;;;1.50;;
66830;SDS011;53739;44.224;22.528;2024-03-29T03:31:35;2.50;;;1.42;;
66830;SDS011;53739;44.224;22.528;2024-03-29T03:34:01;4.20;;;1.98;;
66830;SDS011;53739;44.224;22.528;2024-03-29T03:36:27;4.30;;;1.70;;
66830;SDS011;53739;44.224;22.528;2024-03-29T03:38:53;4.95;;;1.50;;
66830;SDS011;53739;44.224;22.528;2024-03-29T03:41:19;2.80;;;1.55;;
66830;SDS011;53739;44.224;22.528;2024-03-29T03:43:45;4.53;;;1.50;;
66830;SDS011;53739;44.224;22.528;2024-03-29T03:46:11;3.50;;;1.50;;
66830;SDS011;53739;44.224;22.528;2024-03-29T03:48:37;6.45;;;2.10;;
66830;SDS011;53739;44.224;22.528;2024-03-29T03:51:04;7.50;;;1.98;;
66830;SDS011;53739;44.224;22.528;2024-03-29T03:53:30;3.78;;;1.60;;
66830;SDS011;53739;44.224;22.528;2024-03-29T03:55:56;7.95;;;2.08;;
66830;SDS011;53739;44.224;22.528;2024-03-29T03:58:22;6.03;;;1.70;;
66830;SDS011;53739;44.224;22.528;2024-03-29T04:00:48;4.80;;;1.80;;
66830;SDS011;53739;44.224;22.528;2024-03-29T04:03:14;4.80;;;1.95;;
66830;SDS011;53739;44.224;22.528;2024-03-29T04:05:41;3.83;;;1.52;;
66830;SDS011;53739;44.224;22.528;2024-03-29T04:08:07;5.40;;;2.00;;
66830;SDS011;53739;44.224;22.528;2024-03-29T04:10:37;3.80;;;1.70;;
66830;SDS011;53739;44.224;22.528;2024-03-29T04:13:03;3.83;;;1.83;;
66830;SDS011;53739;44.224;22.528;2024-03-29T04:15:29;5.53;;;1.80;;
66830;SDS011;53739;44.224;22.528;2024-03-29T04:17:58;2.90;;;1.42;;
66830;SDS011;53739;44.224;22.528;2024-03-29T04:20:25;5.10;;;1.60;;
66830;SDS011;53739;44.224;22.528;2024-03-29T04:22:51;3.60;;;1.50;;
66830;SDS011;53739;44.224;22.528;2024-03-29T04:25:17;4.43;;;1.83;;
66830;SDS011;53739;44.224;22.528;2024-03-29T04:27:43;6.20;;;1.88;;
66830;SDS011;53739;44.224;22.528;2024-03-29T04:30:09;4.20;;;1.83;;
66830;SDS011;53739;44.224;22.528;2024-03-29T04:32:36;3.55;;;1.73;;
66830;SDS011;53739;44.224;22.528;2024-03-29T04:35:02;4.22;;;1.88;;
66830;SDS011;53739;44.224;22.528;2024-03-29T04:37:29;3.13;;;1.75;;
66830;SDS011;53739;44.224;22.528;2024-03-29T04:39:55;3.92;;;1.70;;
66830;SDS011;53739;44.224;22.528;2024-03-29T04:42:21;3.03;;;1.70;;
66830;SDS011;53739;44.224;22.528;2024-03-29T04:44:47;3.30;;;1.58;;
66830;SDS011;53739;44.224;22.528;2024-03-29T04:47:13;3.42;;;1.80;;
66830;SDS011;53739;44.224;22.528;2024-03-29T04:49:39;5.18;;;1.60;;
66830;SDS011;53739;44.224;22.528;2024-03-29T04:52:05;10.02;;;1.95;;
66830;SDS011;53739;44.224;22.528;2024-03-29T04:54:32;9.68;;;2.10;;
66830;SDS011;53739;44.224;22.528;2024-03-29T04:57:01;4.18;;;1.63;;
66830;SDS011;53739;44.224;22.528;2024-03-29T04:59:28;10.73;;;1.98;;
66830;SDS011;53739;44.224;22.528;2024-03-29T05:01:55;5.47;;;2.15;;
66830;SDS011;53739;44.224;22.528;2024-03-29T05:04:22;4.47;;;1.95;;
66830;SDS011;53739;44.224;22.528;2024-03-29T05:06:54;3.45;;;1.90;;
66830;SDS011;53739;44.224;22.528;2024-03-29T05:09:21;6.25;;;2.17;;
66830;SDS011;53739;44.224;22.528;2024-03-29T05:11:47;6.72;;;2.13;;
66830;SDS011;53739;44.224;22.528;2024-03-29T05:14:14;6.63;;;2.00;;
66830;SDS011;53739;44.224;22.528;2024-03-29T05:16:43;5.78;;;2.17;;
66830;SDS011;53739;44.224;22.528;2024-03-29T05:19:09;3.55;;;1.30;;
66830;SDS011;53739;44.224;22.528;2024-03-29T05:21:35;4.00;;;2.08;;
66830;SDS011;53739;44.224;22.528;2024-03-29T05:24:01;3.75;;;1.65;;
66830;SDS011;53739;44.224;22.528;2024-03-29T05:26:27;2.88;;;1.58;;
66830;SDS011;53739;44.224;22.528;2024-03-29T05:28:53;4.32;;;1.50;;
66830;SDS011;53739;44.224;22.528;2024-03-29T05:31:23;4.65;;;1.63;;
66830;SDS011;53739;44.224;22.528;2024-03-29T05:33:49;4.45;;;1.98;;
66830;SDS011;53739;44.224;22.528;2024-03-29T05:36:16;5.53;;;1.98;;
66830;SDS011;53739;44.224;22.528;2024-03-29T05:38:43;4.20;;;1.83;;
66830;SDS011;53739;44.224;22.528;2024-03-29T05:41:10;3.70;;;1.90;;
66830;SDS011;53739;44.224;22.528;2024-03-29T05:43:36;5.30;;;1.73;;
66830;SDS011;53739;44.224;22.528;2024-03-29T05:46:05;5.47;;;2.30;;
66830;SDS011;53739;44.224;22.528;2024-03-29T05:48:31;3.88;;;1.63;;
66830;SDS011;53739;44.224;22.528;2024-03-29T05:50:58;4.18;;;2.40;;
66830;SDS011;53739;44.224;22.528;2024-03-29T05:53:24;3.70;;;1.85;;
66830;SDS011;53739;44.224;22.528;2024-03-29T05:55:50;5.30;;;2.30;;
66830;SDS011;53739;44.224;22.528;2024-03-29T05:58:16;5.60;;;2.22;;
66830;SDS011;53739;44.224;22.528;2024-03-29T06:00:44;5.90;;;2.35;;
66830;SDS011;53739;44.224;22.528;2024-03-29T06:03:10;4.43;;;1.60;;
66830;SDS011;53739;44.224;22.528;2024-03-29T06:05:36;7.10;;;2.35;;
66830;SDS011;53739;44.224;22.528;2024-03-29T06:08:02;7.55;;;1.80;;
66830;SDS011;53739;44.224;22.528;2024-03-29T06:10:30;6.28;;;2.05;;
66830;SDS011;53739;44.224;22.528;2024-03-29T06:12:56;9.57;;;1.90;;
66830;SDS011;53739;44.224;22.528;2024-03-29T06:15:31;5.85;;;2.38;;
66830;SDS011;53739;44.224;22.528;2024-03-29T06:18:16;11.48;;;4.93;;
66830;SDS011;53739;44.224;22.528;2024-03-29T06:20:44;5.47;;;3.30;;
66830;SDS011;53739;44.224;22.528;2024-03-29T06:23:10;4.28;;;2.42;;
66830;SDS011;53739;44.224;22.528;2024-03-29T06:25:36;4.60;;;2.10;;
66830;SDS011;53739;44.224;22.528;2024-03-29T06:28:02;6.38;;;2.30;;
66830;SDS011;53739;44.224;22.528;2024-03-29T06:30:28;8.07;;;2.47;;
66830;SDS011;53739;44.224;22.528;2024-03-29T06:32:55;10.05;;;3.17;;
66830;SDS011;53739;44.224;22.528;2024-03-29T06:35:21;9.15;;;4.22;;
66830;SDS011;53739;44.224;22.528;2024-03-29T06:37:47;6.38;;;2.70;;
66830;SDS011;53739;44.224;22.528;2024-03-29T06:40:13;6.47;;;2.67;;
66830;SDS011;53739;44.224;22.528;2024-03-29T06:42:39;7.45;;;2.88;;
66830;SDS011;53739;44.224;22.528;2024-03-29T06:45:05;5.63;;;2.35;;
66830;SDS011;53739;44.224;22.528;2024-03-29T06:47:32;4.45;;;2.33;;
66830;SDS011;53739;44.224;22.528;2024-03-29T06:49:58;9.68;;;2.10;;
66830;SDS011;53739;44.224;22.528;2024-03-29T06:52:24;5.60;;;1.90;;
66830;SDS011;53739;44.224;22.528;2024-03-29T06:54:52;7.38;;;1.92;;
66830;SDS011;53739;44.224;22.528;2024-03-29T06:57:19;3.45;;;1.70;;
66830;SDS011;53739;44.224;22.528;2024-03-29T06:59:48;3.40;;;1.55;;
66830;SDS011;53739;44.224;22.528;2024-03-29T07:02:14;2.22;;;1.30;;
66830;SDS011;53739;44.224;22.528;2024-03-29T07:04:40;2.90;;;1.50;;
66830;SDS011;53739;44.224;22.528;2024-03-29T07:07:06;5.78;;;2.97;;
66830;SDS011;53739;44.224;22.528;2024-03-29T07:09:32;2.83;;;1.50;;
66830;SDS011;53739;44.224;22.528;2024-03-29T07:11:58;4.10;;;1.45;;
66830;SDS011;53739;44.224;22.528;2024-03-29T07:14:24;5.53;;;2.58;;
66830;SDS011;53739;44.224;22.528;2024-03-29T07:16:51;4.88;;;1.95;;
66830;SDS011;53739;44.224;22.528;2024-03-29T07:19:17;3.35;;;1.48;;
66830;SDS011;53739;44.224;22.528;2024-03-29T07:21:44;7.72;;;2.15;;
66830;SDS011;53739;44.224;22.528;2024-03-29T07:24:11;4.72;;;1.98;;
66830;SDS011;53739;44.224;22.528;2024-03-29T07:26:37;5.13;;;1.90;;
66830;SDS011;53739;44.224;22.528;2024-03-29T07:29:03;4.55;;;2.03;;
66830;SDS011;53739;44.224;22.528;2024-03-29T07:31:30;4.75;;;1.77;;
66830;SDS011;53739;44.224;22.528;2024-03-29T07:33:57;2.15;;;1.17;;
66830;SDS011;53739;44.224;22.528;2024-03-29T07:36:23;3.20;;;1.50;;
66830;SDS011;53739;44.224;22.528;2024-03-29T07:38:51;2.67;;;1.30;;
66830;SDS011;53739;44.224;22.528;2024-03-29T07:41:17;3.95;;;1.33;;
66830;SDS011;53739;44.224;22.528;2024-03-29T07:43:53;2.20;;;1.15;;
66830;SDS011;53739;44.224;22.528;2024-03-29T07:46:22;4.30;;;1.30;;
66830;SDS011;53739;44.224;22.528;2024-03-29T07:48:51;6.47;;;1.83;;
66830;SDS011;53739;44.224;22.528;2024-03-29T07:51:17;4.53;;;1.35;;
66830;SDS011;53739;44.224;22.528;2024-03-29T07:53:43;4.57;;;1.77;;
66830;SDS011;53739;44.224;22.528;2024-03-29T07:56:09;3.75;;;2.00;;
66830;SDS011;53739;44.224;22.528;2024-03-29T07:58:35;5.82;;;1.95;;
66830;SDS011;53739;44.224;22.528;2024-03-29T08:01:02;5.45;;;1.90;;
66830;SDS011;53739;44.224;22.528;2024-03-29T08:03:28;4.20;;;2.03;;
66830;SDS011;53739;44.224;22.528;2024-03-29T08:05:58;9.98;;;2.20;;
66830;SDS011;53739;44.224;22.528;2024-03-29T08:08:24;7.70;;;2.13;;
66830;SDS011;53739;44.224;22.528;2024-03-29T08:10:52;5.63;;;2.53;;
66830;SDS011;53739;44.224;22.528;2024-03-29T08:13:18;7.00;;;2.95;;
66830;SDS011;53739;44.224;22.528;2024-03-29T08:15:46;4.50;;;1.77;;
66830;SDS011;53739;44.224;22.528;2024-03-29T08:18:12;3.88;;;1.75;;
66830;SDS011;53739;44.224;22.528;2024-03-29T08:20:39;3.20;;;1.70;;
66830;SDS011;53739;44.224;22.528;2024-03-29T08:23:05;5.25;;;1.95;;
66830;SDS011;53739;44.224;22.528;2024-03-29T08:25:31;2.63;;;1.35;;
66830;SDS011;53739;44.224;22.528;2024-03-29T08:27:57;3.75;;;1.70;;
66830;SDS011;53739;44.224;22.528;2024-03-29T08:30:26;3.20;;;1.70;;
66830;SDS011;53739;44.224;22.528;2024-03-29T08:32:59;2.92;;;1.52;;
66830;SDS011;53739;44.224;22.528;2024-03-29T08:35:27;4.70;;;1.50;;
66830;SDS011;53739;44.224;22.528;2024-03-29T08:37:53;4.00;;;2.10;;
66830;SDS011;53739;44.224;22.528;2024-03-29T08:40:19;1.75;;;1.10;;
66830;SDS011;53739;44.224;22.528;2024-03-29T08:42:46;6.32;;;1.52;;
66830;SDS011;53739;44.224;22.528;2024-03-29T08:45:13;6.78;;;1.90;;
66830;SDS011;53739;44.224;22.528;2024-03-29T08:47:39;2.25;;;1.00;;
66830;SDS011;53739;44.224;22.528;2024-03-29T08:50:05;3.55;;;1.30;;
66830;SDS011;53739;44.224;22.528;2024-03-29T08:52:31;2.50;;;1.08;;
66830;SDS011;53739;44.224;22.528;2024-03-29T08:54:57;2.55;;;1.33;;
66830;SDS011;53739;44.224;22.528;2024-03-29T08:57:24;4.40;;;1.65;;
66830;SDS011;53739;44.224;22.528;2024-03-29T08:59:50;4.63;;;1.58;;
66830;SDS011;53739;44.224;22.528;2024-03-29T09:02:16;6.55;;;1.98;;
66830;SDS011;53739;44.224;22.528;2024-03-29T09:04:43;5.22;;;1.63;;
66830;SDS011;53739;44.224;22.528;2024-03-29T09:07:09;4.68;;;1.30;;
66830;SDS011;53739;44.224;22.528;2024-03-29T09:09:36;4.93;;;1.52;;
66830;SDS011;53739;44.224;22.528;2024-03-29T09:12:05;4.88;;;1.52;;
66830;SDS011;53739;44.224;22.528;2024-03-29T09:14:31;5.15;;;1.90;;
66830;SDS011;53739;44.224;22.528;2024-03-29T09:16:57;3.60;;;1.27;;
66830;SDS011;53739;44.224;22.528;2024-03-29T09:19:23;4.35;;;1.30;;
66830;SDS011;53739;44.224;22.528;2024-03-29T09:21:50;8.13;;;2.05;;
66830;SDS011;53739;44.224;22.528;2024-03-29T09:24:16;5.03;;;1.67;;
66830;SDS011;53739;44.224;22.528;2024-03-29T09:26:45;6.75;;;1.42;;
66830;SDS011;53739;44.224;22.528;2024-03-29T09:29:11;5.50;;;1.58;;
66830;SDS011;53739;44.224;22.528;2024-03-29T09:31:38;6.75;;;2.20;;
66830;SDS011;53739;44.224;22.528;2024-03-29T09:34:04;3.92;;;1.77;;
66830;SDS011;53739;44.224;22.528;2024-03-29T09:36:30;4.47;;;1.73;;
66830;SDS011;53739;44.224;22.528;2024-03-29T09:38:56;4.38;;;1.75;;
66830;SDS011;53739;44.224;22.528;2024-03-29T09:41:22;4.65;;;1.40;;
66830;SDS011;53739;44.224;22.528;2024-03-29T09:43:53;3.67;;;1.50;;
66830;SDS011;53739;44.224;22.528;2024-03-29T09:46:20;4.53;;;1.40;;
66830;SDS011;53739;44.224;22.528;2024-03-29T09:48:47;7.30;;;1.60;;
66830;SDS011;53739;44.224;22.528;2024-03-29T09:51:13;7.07;;;1.67;;
66830;SDS011;53739;44.224;22.528;2024-03-29T09:53:41;4.93;;;1.70;;
66830;SDS011;53739;44.224;22.528;2024-03-29T09:56:07;9.30;;;2.42;;
66830;SDS011;53739;44.224;22.528;2024-03-29T09:58:34;6.43;;;1.70;;
66830;SDS011;53739;44.224;22.528;2024-03-29T10:01:05;7.85;;;2.60;;
66830;SDS011;53739;44.224;22.528;2024-03-29T10:03:38;6.20;;;1.95;;
66830;SDS011;53739;44.224;22.528;2024-03-29T10:06:05;6.20;;;1.17;;
66830;SDS011;53739;44.224;22.528;2024-03-29T10:08:34;2.50;;;1.40;;
66830;SDS011;53739;44.224;22.528;2024-03-29T10:11:01;3.20;;;1.52;;
66830;SDS011;53739;44.224;22.528;2024-03-29T10:13:28;3.00;;;1.20;;
66830;SDS011;53739;44.224;22.528;2024-03-29T10:15:54;3.50;;;1.35;;
66830;SDS011;53739;44.224;22.528;2024-03-29T10:18:24;6.97;;;1.60;;
66830;SDS011;53739;44.224;22.528;2024-03-29T10:23:26;4.60;;;1.50;;
66830;SDS011;53739;44.224;22.528;2024-03-29T10:25:53;5.05;;;1.38;;
66830;SDS011;53739;44.224;22.528;2024-03-29T10:28:19;5.50;;;1.73;;
66830;SDS011;53739;44.224;22.528;2024-03-29T10:30:46;6.15;;;1.70;;
66830;SDS011;53739;44.224;22.528;2024-03-29T10:33:15;4.10;;;1.88;;
66830;SDS011;53739;44.224;22.528;2024-03-29T10:35:45;4.40;;;1.83;;
66830;SDS011;53739;44.224;22.528;2024-03-29T10:38:12;6.97;;;2.00;;
66830;SDS011;53739;44.224;22.528;2024-03-29T10:40:38;3.17;;;1.70;;
66830;SDS011;53739;44.224;22.528;2024-03-29T10:43:10;7.80;;;2.60;;
66830;SDS011;53739;44.224;22.528;2024-03-29T10:45:41;6.28;;;2.58;;
66830;SDS011;53739;44.224;22.528;2024-03-29T10:48:08;7.75;;;1.92;;
66830;SDS011;53739;44.224;22.528;2024-03-29T10:50:38;8.68;;;1.95;;
66830;SDS011;53739;44.224;22.528;2024-03-29T10:53:06;5.70;;;1.60;;
66830;SDS011;53739;44.224;22.528;2024-03-29T10:55:32;3.90;;;1.25;;
66830;SDS011;53739;44.224;22.528;2024-03-29T10:58:00;2.63;;;1.30;;
66830;SDS011;53739;44.224;22.528;2024-03-29T11:00:28;5.28;;;1.73;;
66830;SDS011;53739;44.224;22.528;2024-03-29T11:03:02;5.18;;;1.55;;
66830;SDS011;53739;44.224;22.528;2024-03-29T11:05:33;4.80;;;1.83;;
66830;SDS011;53739;44.224;22.528;2024-03-29T11:08:00;4.28;;;1.77;;
66830;SDS011;53739;44.224;22.528;2024-03-29T11:10:40;4.88;;;1.90;;
66830;SDS011;53739;44.224;22.528;2024-03-29T11:15:55;5.07;;;1.55;;
66830;SDS011;53739;44.224;22.528;2024-03-29T11:18:21;3.90;;;1.40;;
66830;SDS011;53739;44.224;22.528;2024-03-29T11:20:49;4.50;;;1.23;;
66830;SDS011;53739;44.224;22.528;2024-03-29T11:23:17;4.63;;;1.63;;
66830;SDS011;53739;44.224;22.528;2024-03-29T11:25:51;5.28;;;1.40;;
66830;SDS011;53739;44.224;22.528;2024-03-29T11:28:27;3.03;;;1.17;;
66830;SDS011;53739;44.224;22.528;2024-03-29T11:30:56;7.65;;;2.85;;
66830;SDS011;53739;44.224;22.528;2024-03-29T11:33:25;2.53;;;1.33;;
66830;SDS011;53739;44.224;22.528;2024-03-29T11:35:51;3.08;;;1.20;;
66830;SDS011;53739;44.224;22.528;2024-03-29T11:38:18;4.50;;;1.80;;
66830;SDS011;53739;44.224;22.528;2024-03-29T11:41:02;6.63;;;1.33;;
66830;SDS011;53739;44.224;22.528;2024-03-29T11:43:32;4.30;;;1.20;;
66830;SDS011;53739;44.224;22.528;2024-03-29T11:45:59;3.15;;;1.10;;
66830;SDS011;53739;44.224;22.528;2024-03-29T11:48:29;2.28;;;1.30;;
66830;SDS011;53739;44.224;22.528;2024-03-29T11:50:58;6.43;;;1.52;;
66830;SDS011;53739;44.224;22.528;2024-03-29T11:53:24;6.53;;;1.35;;
66830;SDS011;53739;44.224;22.528;2024-03-29T11:55:52;6.10;;;1.45;;
66830;SDS011;53739;44.224;22.528;2024-03-29T11:58:22;4.50;;;1.50;;
66830;SDS011;53739;44.224;22.528;2024-03-29T12:00:48;3.78;;;1.70;;
66830;SDS011;53739;44.224;22.528;2024-03-29T12:03:16;3.22;;;1.50;;
66830;SDS011;53739;44.224;22.528;2024-03-29T12:05:43;8.13;;;2.78;;
66830;SDS011;53739;44.224;22.528;2024-03-29T12:08:09;6.07;;;1.90;;
66830;SDS011;53739;44.224;22.528;2024-03-29T12:10:36;6.20;;;2.83;;
66830;SDS011;53739;44.224;22.528;2024-03-29T12:13:04;10.00;;;5.97;;
66830;SDS011;53739;44.224;22.528;2024-03-29T12:15:30;4.18;;;1.55;;
66830;SDS011;53739;44.224;22.528;2024-03-29T12:18:03;2.63;;;1.15;;
66830;SDS011;53739;44.224;22.528;2024-03-29T12:20:31;2.25;;;1.23;;
66830;SDS011;53739;44.224;22.528;2024-03-29T12:23:06;3.65;;;1.50;;
66830;SDS011;53739;44.224;22.528;2024-03-29T12:25:33;8.90;;;2.97;;
66830;SDS011;53739;44.224;22.528;2024-03-29T12:28:00;5.85;;;2.22;;
66830;SDS011;53739;44.224;22.528;2024-03-29T12:30:26;8.60;;;2.88;;
66830;SDS011;53739;44.224;22.528;2024-03-29T12:33:02;7.88;;;2.30;;
66830;SDS011;53739;44.224;22.528;2024-03-29T12:35:29;5.05;;;2.50;;
66830;SDS011;53739;44.224;22.528;2024-03-29T12:38:01;4.53;;;1.80;;
66830;SDS011;53739;44.224;22.528;2024-03-29T12:40:31;4.32;;;1.70;;
66830;SDS011;53739;44.224;22.528;2024-03-29T12:43:02;4.43;;;1.67;;
66830;SDS011;53739;44.224;22.528;2024-03-29T12:45:29;8.35;;;1.80;;
66830;SDS011;53739;44.224;22.528;2024-03-29T12:47:56;4.53;;;1.75;;
66830;SDS011;53739;44.224;22.528;2024-03-29T12:50:29;2.80;;;1.30;;
66830;SDS011;53739;44.224;22.528;2024-03-29T12:52:59;2.08;;;1.20;;
66830;SDS011;53739;44.224;22.528;2024-03-29T12:55:26;5.03;;;1.40;;
66830;SDS011;53739;44.224;22.528;2024-03-29T12:57:56;3.00;;;1.20;;
66830;SDS011;53739;44.224;22.528;2024-03-29T13:00:23;3.42;;;1.40;;
66830;SDS011;53739;44.224;22.528;2024-03-29T13:02:49;5.95;;;1.58;;
66830;SDS011;53739;44.224;22.528;2024-03-29T13:05:15;3.83;;;1.90;;
66830;SDS011;53739;44.224;22.528;2024-03-29T13:07:42;4.43;;;1.50;;
66830;SDS011;53739;44.224;22.528;2024-03-29T13:10:08;3.45;;;1.75;;
66830;SDS011;53739;44.224;22.528;2024-03-29T13:12:41;4.03;;;1.45;;
66830;SDS011;53739;44.224;22.528;2024-03-29T13:15:18;9.20;;;1.77;;
66830;SDS011;53739;44.224;22.528;2024-03-29T13:17:44;4.45;;;1.45;;
66830;SDS011;53739;44.224;22.528;2024-03-29T13:20:11;6.35;;;1.67;;
66830;SDS011;53739;44.224;22.528;2024-03-29T13:22:38;7.82;;;1.33;;
66830;SDS011;53739;44.224;22.528;2024-03-29T13:25:07;8.27;;;1.60;;
66830;SDS011;53739;44.224;22.528;2024-03-29T13:27:35;5.38;;;1.48;;
66830;SDS011;53739;44.224;22.528;2024-03-29T13:30:02;5.85;;;1.50;;
66830;SDS011;53739;44.224;22.528;2024-03-29T13:32:28;6.40;;;2.10;;
66830;SDS011;53739;44.224;22.528;2024-03-29T13:34:57;2.33;;;1.10;;
66830;SDS011;53739;44.224;22.528;2024-03-29T13:37:23;3.00;;;1.17;;
66830;SDS011;53739;44.224;22.528;2024-03-29T13:39:52;3.80;;;1.10;;
66830;SDS011;53739;44.224;22.528;2024-03-29T13:42:18;3.15;;;1.40;;
66830;SDS011;53739;44.224;22.528;2024-03-29T13:44:44;3.00;;;1.42;;
66830;SDS011;53739;44.224;22.528;2024-03-29T13:47:11;3.42;;;1.58;;
66830;SDS011;53739;44.224;22.528;2024-03-29T13:49:41;2.78;;;1.52;;
66830;SDS011;53739;44.224;22.528;2024-03-29T13:52:14;4.65;;;1.23;;
66830;SDS011;53739;44.224;22.528;2024-03-29T13:54:44;4.07;;;1.25;;
66830;SDS011;53739;44.224;22.528;2024-03-29T13:57:12;3.10;;;1.30;;
66830;SDS011;53739;44.224;22.528;2024-03-29T13:59:38;4.82;;;1.30;;
66830;SDS011;53739;44.224;22.528;2024-03-29T14:02:07;5.80;;;1.23;;
66830;SDS011;53739;44.224;22.528;2024-03-29T14:04:33;2.90;;;1.00;;
66830;SDS011;53739;44.224;22.528;2024-03-29T14:06:59;4.18;;;1.48;;
66830;SDS011;53739;44.224;22.528;2024-03-29T14:09:27;5.65;;;1.67;;
66830;SDS011;53739;44.224;22.528;2024-03-29T14:11:53;3.53;;;1.20;;
66830;SDS011;53739;44.224;22.528;2024-03-29T14:14:19;3.83;;;1.30;;
66830;SDS011;53739;44.224;22.528;2024-03-29T14:16:45;7.40;;;2.03;;
66830;SDS011;53739;44.224;22.528;2024-03-29T14:19:11;4.72;;;1.38;;
66830;SDS011;53739;44.224;22.528;2024-03-29T14:21:39;5.47;;;1.75;;
66830;SDS011;53739;44.224;22.528;2024-03-29T14:24:05;6.10;;;1.33;;
66830;SDS011;53739;44.224;22.528;2024-03-29T14:26:31;5.35;;;2.10;;
66830;SDS011;53739;44.224;22.528;2024-03-29T14:28:58;5.50;;;1.90;;
66830;SDS011;53739;44.224;22.528;2024-03-29T14:31:24;5.10;;;1.33;;
66830;SDS011;53739;44.224;22.528;2024-03-29T14:33:50;4.93;;;1.65;;
66830;SDS011;53739;44.224;22.528;2024-03-29T14:36:16;5.90;;;2.63;;
66830;SDS011;53739;44.224;22.528;2024-03-29T14:38:43;10.20;;;3.58;;
66830;SDS011;53739;44.224;22.528;2024-03-29T14:41:10;6.00;;;1.80;;